createdAt,value
2018-05-23T00:02:06.079Z,91.50
2018-05-23T00:04:32.359Z,91.50
2018-05-23T00:06:58.641Z,91.60
2018-05-23T00:09:24.917Z,91.50
2018-05-23T00:11:51.185Z,91.30
2018-05-23T00:14:17.802Z,91.30
2018-05-23T00:16:44.290Z,91.20
2018-05-23T00:19:10.777Z,91.20
2018-05-23T00:21:37.321Z,91.30
2018-05-23T00:24:04.375Z,91.60
2018-05-23T00:26:30.670Z,91.60
2018-05-23T00:28:56.930Z,91.60
2018-05-23T00:31:23.229Z,91.30
2018-05-23T00:33:49.481Z,91.30
2018-05-23T00:36:15.719Z,91.20
2018-05-23T00:38:41.950Z,91.30
2018-05-23T00:41:08.199Z,91.40
2018-05-23T00:43:34.437Z,91.50
2018-05-23T00:46:00.708Z,91.30
2018-05-23T00:48:26.962Z,91.50
2018-05-23T00:50:53.261Z,91.60
2018-05-23T00:53:19.498Z,91.80
2018-05-23T00:55:45.775Z,91.90
2018-05-23T00:58:12.007Z,91.80
2018-05-23T01:00:38.741Z,91.80
2018-05-23T01:03:04.979Z,91.70
2018-05-23T01:05:31.247Z,91.70
2018-05-23T01:07:58.334Z,91.90
2018-05-23T01:10:24.594Z,91.90
2018-05-23T01:12:50.922Z,91.80
2018-05-23T01:15:17.621Z,92.00
2018-05-23T01:17:43.907Z,92.10
2018-05-23T01:20:10.173Z,92.00
2018-05-23T01:22:36.487Z,92.10
2018-05-23T01:25:03.507Z,91.80
2018-05-23T01:27:29.751Z,91.80
2018-05-23T01:29:56.010Z,91.60
2018-05-23T01:32:23.002Z,91.70
2018-05-23T01:34:49.379Z,91.70
2018-05-23T01:37:16.361Z,91.70
2018-05-23T01:39:42.620Z,91.70
2018-05-23T01:42:08.853Z,91.50
2018-05-23T01:44:35.122Z,91.70
2018-05-23T01:47:01.362Z,91.70
2018-05-23T01:49:27.625Z,91.60
2018-05-23T01:51:53.910Z,91.60
2018-05-23T01:54:20.133Z,91.50
2018-05-23T01:56:46.417Z,91.60
2018-05-23T01:59:12.660Z,91.70
2018-05-23T02:01:38.916Z,91.80
2018-05-23T02:04:05.187Z,91.90
2018-05-23T02:06:32.295Z,91.80
2018-05-23T02:08:58.527Z,91.80
2018-05-23T02:11:24.798Z,91.90
2018-05-23T02:13:51.050Z,92.00
2018-05-23T02:16:17.309Z,92.00
2018-05-23T02:18:43.539Z,92.10
2018-05-23T02:21:09.797Z,92.10
2018-05-23T02:23:36.063Z,91.80
2018-05-23T02:26:02.345Z,91.50
2018-05-23T02:28:28.610Z,91.70
2018-05-23T02:30:54.903Z,91.80
2018-05-23T02:33:21.179Z,91.80
2018-05-23T02:35:47.458Z,91.80
2018-05-23T02:38:13.686Z,91.90
2018-05-23T02:40:39.947Z,92.00
2018-05-23T02:43:06.255Z,91.80
2018-05-23T02:45:32.526Z,91.80
2018-05-23T02:47:59.506Z,91.70
2018-05-23T02:50:25.810Z,91.70
2018-05-23T02:52:52.802Z,91.80
2018-05-23T02:55:19.042Z,91.90
2018-05-23T02:57:47.886Z,91.60
2018-05-23T03:00:14.861Z,91.80
2018-05-23T03:02:41.195Z,91.80
2018-05-23T03:05:07.441Z,91.70
2018-05-23T03:07:33.742Z,91.70
2018-05-23T03:09:59.981Z,91.70
2018-05-23T03:12:26.250Z,91.90
2018-05-23T03:14:52.715Z,92.10
2018-05-23T03:17:18.982Z,92.20
2018-05-23T03:19:45.218Z,92.10
2018-05-23T03:22:11.560Z,92.10
2018-05-23T03:24:37.734Z,91.80
2018-05-23T03:27:04.018Z,91.70
2018-05-23T03:29:30.266Z,92.00
2018-05-23T03:31:56.528Z,92.20
2018-05-23T03:34:22.766Z,92.40
2018-05-23T03:36:49.769Z,92.30
2018-05-23T03:39:16.117Z,92.30
2018-05-23T03:41:42.388Z,92.30
2018-05-23T03:44:09.369Z,92.00
2018-05-23T03:46:35.645Z,92.00
2018-05-23T03:49:01.907Z,92.10
2018-05-23T03:51:28.186Z,92.20
2018-05-23T03:53:54.426Z,92.50
2018-05-23T03:56:20.674Z,92.60
2018-05-23T03:58:46.976Z,92.70
2018-05-23T04:01:25.406Z,92.60
2018-05-23T04:04:03.758Z,92.80
2018-05-23T04:06:43.537Z,92.60
2018-05-23T04:09:09.931Z,92.60
2018-05-23T04:11:36.910Z,92.60
2018-05-23T04:14:03.193Z,92.50
2018-05-23T04:16:29.455Z,92.40
2018-05-23T04:18:56.454Z,92.20
2018-05-23T04:21:22.809Z,92.20
2018-05-23T04:23:49.067Z,92.00
2018-05-23T04:26:16.061Z,92.00
2018-05-23T04:28:42.331Z,92.00
2018-05-23T04:31:08.603Z,92.00
2018-05-23T04:33:34.870Z,92.00
2018-05-23T04:36:01.122Z,91.90
2018-05-23T04:38:27.378Z,92.20
2018-05-23T04:40:54.490Z,92.00
2018-05-23T04:43:20.769Z,92.00
2018-05-23T04:45:47.078Z,91.90
2018-05-23T04:48:14.071Z,92.00
2018-05-23T04:50:40.334Z,91.90
2018-05-23T04:53:06.618Z,92.10
2018-05-23T04:55:32.878Z,92.00
2018-05-23T04:57:59.150Z,92.00
2018-05-23T05:00:26.141Z,91.70
2018-05-23T05:02:52.409Z,91.70
2018-05-23T05:05:18.634Z,91.80
2018-05-23T05:07:44.876Z,91.50
2018-05-23T05:10:11.155Z,91.60
2018-05-23T05:12:37.415Z,91.50
2018-05-23T05:15:03.713Z,91.30
2018-05-23T05:17:29.946Z,91.60
2018-05-23T05:19:56.202Z,91.30
2018-05-23T05:22:22.462Z,91.60
2018-05-23T05:24:48.741Z,91.50
2018-05-23T05:27:15.002Z,91.30
2018-05-23T05:29:41.266Z,91.50
2018-05-23T05:32:07.502Z,91.30
2018-05-23T05:34:34.532Z,91.30
2018-05-23T05:37:00.760Z,91.30
2018-05-23T05:39:27.039Z,91.50
2018-05-23T05:41:53.363Z,91.50
2018-05-23T05:44:19.641Z,91.40
2018-05-23T05:46:45.893Z,91.50
2018-05-23T05:49:12.204Z,91.20
2018-05-23T05:51:38.469Z,91.40
2018-05-23T05:54:05.471Z,91.50
2018-05-23T05:56:31.717Z,91.50
2018-05-23T05:58:57.986Z,91.40
2018-05-23T06:01:25.247Z,91.60
2018-05-23T06:03:51.519Z,91.60
2018-05-23T06:06:17.762Z,90.90
2018-05-23T06:08:44.066Z,91.30
2018-05-23T06:11:10.330Z,90.90
2018-05-23T06:13:36.591Z,91.10
2018-05-23T06:16:02.834Z,91.20
2018-05-23T06:18:29.093Z,91.20
2018-05-23T06:20:55.421Z,91.00
2018-05-23T06:23:21.665Z,90.80
2018-05-23T06:25:47.921Z,90.60
2018-05-23T06:28:14.141Z,90.20
2018-05-23T06:30:40.393Z,90.20
2018-05-23T06:33:06.626Z,90.00
2018-05-23T06:35:32.906Z,90.40
2018-05-23T06:37:59.509Z,90.40
2018-05-23T06:40:25.757Z,90.10
2018-05-23T06:42:52.842Z,89.40
2018-05-23T06:45:19.106Z,89.30
2018-05-23T06:47:45.340Z,89.00
2018-05-23T06:50:11.614Z,87.80
2018-05-23T06:52:37.858Z,88.40
2018-05-23T06:55:04.241Z,89.00
2018-05-23T06:57:30.462Z,89.50
2018-05-23T06:59:56.720Z,89.20
2018-05-23T07:02:23.816Z,88.60
2018-05-23T07:04:50.083Z,88.60
2018-05-23T07:07:16.355Z,87.90
2018-05-23T07:09:42.641Z,87.60
2018-05-23T07:12:08.862Z,86.30
2018-05-23T07:14:35.158Z,86.30
2018-05-23T07:17:01.415Z,85.50
2018-05-23T07:19:27.674Z,85.90
2018-05-23T07:21:53.905Z,86.10
2018-05-23T07:24:20.157Z,86.60
2018-05-23T07:26:47.243Z,86.90
2018-05-23T07:29:13.473Z,86.90
2018-05-23T07:31:39.792Z,86.10
2018-05-23T07:34:05.993Z,84.50
2018-05-23T07:36:32.236Z,85.00
2018-05-23T07:38:58.498Z,83.60
2018-05-23T07:41:24.789Z,84.90
2018-05-23T07:43:51.034Z,84.80
2018-05-23T07:46:17.333Z,84.30
2018-05-23T07:48:43.614Z,84.00
2018-05-23T07:51:10.653Z,84.30
2018-05-23T07:53:36.902Z,84.30
2018-05-23T07:56:03.267Z,83.90
2018-05-23T07:58:30.878Z,83.60
2018-05-23T08:01:12.109Z,83.60
2018-05-23T08:03:38.860Z,81.80
2018-05-23T08:06:05.137Z,81.40
2018-05-23T08:08:32.756Z,80.40
2018-05-23T08:10:59.076Z,81.80
2018-05-23T08:13:26.834Z,79.80
2018-05-23T08:15:53.090Z,80.50
2018-05-23T08:18:19.402Z,79.60
2018-05-23T08:20:45.673Z,81.10
2018-05-23T08:23:12.650Z,79.40
2018-05-23T08:25:38.902Z,78.70
2018-05-23T08:28:05.147Z,78.20
2018-05-23T08:30:31.405Z,78.00
2018-05-23T08:32:57.670Z,77.80
2018-05-23T08:35:23.938Z,75.90
2018-05-23T08:37:50.219Z,76.10
2018-05-23T08:40:17.220Z,75.60
2018-05-23T08:42:43.453Z,75.60
2018-05-23T08:45:09.694Z,76.40
2018-05-23T08:47:36.087Z,76.40
2018-05-23T08:50:02.521Z,75.60
2018-05-23T08:52:28.785Z,76.80
2018-05-23T08:54:55.109Z,75.00
2018-05-23T08:57:21.750Z,75.60
2018-05-23T08:59:48.185Z,75.00
2018-05-23T09:02:14.558Z,74.80
2018-05-23T09:04:42.162Z,74.70
2018-05-23T09:07:08.457Z,74.60
2018-05-23T09:09:35.453Z,74.70
2018-05-23T09:12:01.734Z,74.70
2018-05-23T09:14:28.720Z,75.10
2018-05-23T09:16:55.855Z,75.00
2018-05-23T09:19:23.174Z,74.80
2018-05-23T09:21:49.425Z,75.00
2018-05-23T09:24:16.402Z,75.00
2018-05-23T09:26:42.725Z,75.00
2018-05-23T09:29:08.954Z,73.60
2018-05-23T09:31:35.382Z,73.10
2018-05-23T09:34:01.627Z,73.10
2018-05-23T09:36:27.874Z,73.10
2018-05-23T09:38:54.150Z,72.70
2018-05-23T09:41:21.162Z,73.60
2018-05-23T09:43:47.398Z,73.50
2018-05-23T09:46:13.651Z,72.20
2018-05-23T09:48:39.882Z,73.20
2018-05-23T09:51:06.220Z,73.10
2018-05-23T09:53:32.501Z,72.90
2018-05-23T09:55:58.745Z,74.20
2018-05-23T09:58:25.006Z,73.20
2018-05-23T10:00:51.254Z,75.00
2018-05-23T10:03:17.567Z,78.30
2018-05-23T10:05:43.810Z,77.30
2018-05-23T10:08:10.070Z,76.80
2018-05-23T10:10:36.317Z,76.90
2018-05-23T10:13:02.599Z,77.50
2018-05-23T10:15:30.432Z,74.40
2018-05-23T10:17:56.814Z,74.40
2018-05-23T10:20:23.061Z,72.10
2018-05-23T10:22:50.057Z,69.90
2018-05-23T10:25:16.385Z,69.80
2018-05-23T10:27:42.630Z,67.70
2018-05-23T10:30:08.891Z,69.20
2018-05-23T10:32:35.941Z,66.60
2018-05-23T10:35:02.986Z,65.40
2018-05-23T10:37:29.245Z,66.00
2018-05-23T10:39:55.661Z,63.90
2018-05-23T10:42:22.649Z,63.00
2018-05-23T10:44:48.910Z,62.90
2018-05-23T10:47:15.164Z,63.40
2018-05-23T10:49:41.417Z,60.30
2018-05-23T10:52:07.789Z,60.50
2018-05-23T10:54:34.054Z,62.20
2018-05-23T10:57:00.386Z,61.80
2018-05-23T10:59:26.614Z,60.00
2018-05-23T11:01:53.678Z,59.10
2018-05-23T11:04:20.078Z,59.20
2018-05-23T11:06:46.317Z,58.80
2018-05-23T11:09:12.592Z,57.40
2018-05-23T11:11:38.902Z,59.50
2018-05-23T11:14:05.217Z,58.80
2018-05-23T11:16:31.474Z,58.70
2018-05-23T11:18:58.458Z,59.80
2018-05-23T11:21:24.806Z,59.70
2018-05-23T11:23:51.041Z,59.10
2018-05-23T11:26:17.458Z,58.90
2018-05-23T11:28:43.698Z,58.60
2018-05-23T11:31:09.961Z,58.70
2018-05-23T11:33:36.287Z,58.30
2018-05-23T11:36:02.563Z,57.60
2018-05-23T11:38:29.474Z,56.90
2018-05-23T11:40:55.846Z,57.60
2018-05-23T11:43:22.090Z,58.00
2018-05-23T11:45:48.353Z,57.90
2018-05-23T11:48:14.659Z,59.20
2018-05-23T11:50:40.938Z,59.70
2018-05-23T11:53:07.241Z,59.80
2018-05-23T11:55:33.511Z,59.40
2018-05-23T11:57:59.738Z,58.80
2018-05-23T12:00:26.528Z,59.00
2018-05-23T12:02:52.825Z,58.30
2018-05-23T12:05:19.805Z,55.70
2018-05-23T12:07:46.094Z,55.60
2018-05-23T12:10:12.411Z,55.00
2018-05-23T12:12:38.650Z,53.30
2018-05-23T12:15:04.942Z,52.10
2018-05-23T12:17:31.398Z,52.70
2018-05-23T12:19:58.442Z,52.30
2018-05-23T12:22:24.741Z,52.30
2018-05-23T12:24:51.002Z,53.10
2018-05-23T12:27:17.298Z,53.10
2018-05-23T12:29:43.542Z,54.10
2018-05-23T12:32:09.932Z,53.80
2018-05-23T12:34:36.097Z,53.60
2018-05-23T12:37:02.365Z,54.40
2018-05-23T12:39:28.613Z,54.00
2018-05-23T12:41:54.878Z,54.90
2018-05-23T12:44:21.858Z,53.00
2018-05-23T12:46:48.107Z,53.00
2018-05-23T12:49:14.358Z,52.20
2018-05-23T12:51:40.633Z,52.80
2018-05-23T12:54:06.985Z,52.10
2018-05-23T12:56:33.342Z,53.80
2018-05-23T12:58:59.677Z,53.00
2018-05-23T13:01:25.925Z,53.80
2018-05-23T13:03:52.178Z,54.40
2018-05-23T13:06:19.206Z,55.40
2018-05-23T13:08:46.226Z,56.30
2018-05-23T13:11:12.467Z,56.40
2018-05-23T13:13:38.722Z,57.10
2018-05-23T13:16:05.717Z,57.80
2018-05-23T13:18:31.970Z,57.60
2018-05-23T13:20:58.214Z,57.30
2018-05-23T13:23:24.490Z,56.90
2018-05-23T13:25:51.530Z,58.20
2018-05-23T13:28:18.554Z,56.20
2018-05-23T13:30:44.793Z,56.20
2018-05-23T13:33:11.201Z,57.90
2018-05-23T13:35:37.448Z,57.40
2018-05-23T13:38:03.710Z,57.10
2018-05-23T13:40:29.950Z,57.70
2018-05-23T13:42:56.286Z,57.40
2018-05-23T13:45:22.558Z,58.10
2018-05-23T13:47:48.808Z,58.70
2018-05-23T13:50:15.224Z,57.50
2018-05-23T13:52:41.499Z,56.10
2018-05-23T13:55:07.884Z,55.50
2018-05-23T13:57:34.070Z,55.50
2018-05-23T14:00:00.471Z,54.70
2018-05-23T14:02:26.722Z,53.60
2018-05-23T14:04:52.978Z,53.60
2018-05-23T14:07:19.373Z,53.00
2018-05-23T14:09:45.695Z,52.10
2018-05-23T14:12:11.918Z,51.00
2018-05-23T14:14:38.185Z,51.30
2018-05-23T14:17:04.456Z,51.20
2018-05-23T14:19:30.751Z,47.60
2018-05-23T14:21:57.001Z,42.20
2018-05-23T14:24:23.371Z,37.70
2018-05-23T14:26:49.622Z,35.20
2018-05-23T14:29:15.913Z,32.70
2018-05-23T14:31:42.162Z,31.70
2018-05-23T14:34:08.472Z,30.20
2018-05-23T14:36:34.687Z,29.10
2018-05-23T14:39:00.947Z,27.50
2018-05-23T14:41:27.430Z,27.00
2018-05-23T14:43:53.661Z,27.50
2018-05-23T14:46:19.929Z,27.20
2018-05-23T14:48:46.203Z,28.10
2018-05-23T14:51:13.206Z,28.50
2018-05-23T14:53:39.462Z,28.50
2018-05-23T14:56:05.730Z,29.20
2018-05-23T14:58:32.538Z,29.90
2018-05-23T15:00:58.797Z,31.30
2018-05-23T15:03:25.036Z,34.30
2018-05-23T15:05:51.653Z,37.50
2018-05-23T15:08:17.876Z,39.60
2018-05-23T15:10:44.129Z,40.40
2018-05-23T15:13:10.366Z,42.00
2018-05-23T15:15:36.638Z,44.90
2018-05-23T15:18:02.911Z,47.50
2018-05-23T15:20:29.193Z,49.50
2018-05-23T15:22:55.450Z,49.60
2018-05-23T15:25:21.725Z,50.20
2018-05-23T15:27:48.114Z,51.10
2018-05-23T15:30:14.405Z,51.20
2018-05-23T15:32:40.811Z,51.20
2018-05-23T15:35:07.104Z,52.40
2018-05-23T15:37:33.451Z,51.60
2018-05-23T15:39:59.713Z,51.50
2018-05-23T15:42:26.002Z,52.50
2018-05-23T15:44:52.226Z,52.50
2018-05-23T15:47:18.477Z,51.70
2018-05-23T15:49:44.778Z,51.50
2018-05-23T15:52:12.397Z,51.80
2018-05-23T15:54:38.630Z,51.50
2018-05-23T15:57:05.017Z,49.40
2018-05-23T15:59:31.290Z,47.70
2018-05-23T16:01:57.573Z,44.10
2018-05-23T16:04:23.821Z,41.00
2018-05-23T16:06:50.443Z,39.90
2018-05-23T16:09:16.788Z,39.60
2018-05-23T16:11:43.050Z,40.00
2018-05-23T16:14:09.325Z,38.00
2018-05-23T16:16:35.577Z,36.50
2018-05-23T16:19:01.837Z,34.20
2018-05-23T16:21:28.085Z,32.80
2018-05-23T16:23:54.362Z,32.70
2018-05-23T16:26:20.613Z,35.00
2018-05-23T16:28:47.226Z,36.40
2018-05-23T16:31:13.478Z,36.00
2018-05-23T16:33:39.739Z,37.70
2018-05-23T16:36:06.006Z,41.10
2018-05-23T16:38:32.258Z,43.90
2018-05-23T16:40:58.565Z,47.00
2018-05-23T16:43:25.578Z,49.70
2018-05-23T16:45:51.825Z,49.80
2018-05-23T16:48:18.162Z,50.40
2018-05-23T16:50:44.426Z,50.60
2018-05-23T16:53:12.341Z,51.40
2018-05-23T16:55:38.614Z,51.30
2018-05-23T16:58:04.878Z,51.50
2018-05-23T17:00:31.118Z,51.60
2018-05-23T17:02:57.425Z,50.10
2018-05-23T17:05:23.699Z,48.10
2018-05-23T17:07:49.951Z,46.50
2018-05-23T17:10:16.358Z,47.30
2018-05-23T17:12:42.606Z,48.30
2018-05-23T17:15:08.918Z,48.30
2018-05-23T17:17:35.154Z,48.60
2018-05-23T17:20:01.439Z,48.20
2018-05-23T17:22:27.688Z,48.20
2018-05-23T17:24:53.963Z,47.70
2018-05-23T17:27:20.641Z,48.10
2018-05-23T17:29:46.902Z,49.10
2018-05-23T17:32:13.169Z,49.30
2018-05-23T17:34:39.427Z,49.40
2018-05-23T17:37:06.109Z,48.10
2018-05-23T17:39:32.364Z,49.20
2018-05-23T17:41:58.614Z,51.00
2018-05-23T17:44:24.880Z,54.10
2018-05-23T17:46:51.129Z,54.70
2018-05-23T17:49:17.397Z,55.40
2018-05-23T17:51:43.643Z,55.80
2018-05-23T17:54:10.649Z,55.60
2018-05-23T17:56:36.913Z,55.60
2018-05-23T17:59:03.454Z,56.00
2018-05-23T18:01:29.714Z,55.30
2018-05-23T18:03:55.997Z,54.70
2018-05-23T18:06:22.269Z,55.70
2018-05-23T18:08:49.318Z,56.20
2018-05-23T18:11:15.631Z,56.10
2018-05-23T18:13:41.846Z,55.40
2018-05-23T18:16:08.117Z,54.30
2018-05-23T18:18:34.354Z,54.80
2018-05-23T18:21:00.801Z,54.90
2018-05-23T18:23:27.061Z,55.60
2018-05-23T18:25:53.341Z,55.20
2018-05-23T18:28:21.059Z,55.80
2018-05-23T18:30:47.361Z,56.30
2018-05-23T18:33:13.706Z,56.30
2018-05-23T18:35:39.972Z,56.20
2018-05-23T18:38:06.234Z,56.90
2018-05-23T18:40:32.653Z,57.50
2018-05-23T18:42:58.918Z,56.90
2018-05-23T18:45:26.005Z,57.20
2018-05-23T18:47:52.381Z,57.40
2018-05-23T18:50:19.468Z,57.20
2018-05-23T18:52:45.811Z,57.20
2018-05-23T18:55:12.057Z,57.20
2018-05-23T18:57:38.323Z,57.10
2018-05-23T19:00:04.607Z,56.70
2018-05-23T19:02:31.218Z,57.20
2018-05-23T19:04:57.454Z,57.30
2018-05-23T19:07:23.724Z,58.00
2018-05-23T19:09:49.978Z,58.70
2018-05-23T19:12:16.229Z,59.00
2018-05-23T19:14:42.461Z,59.20
2018-05-23T19:17:09.614Z,59.50
2018-05-23T19:19:36.146Z,59.90
2018-05-23T19:22:03.074Z,60.70
2018-05-23T19:24:29.327Z,60.20
2018-05-23T19:26:55.590Z,60.80
2018-05-23T19:29:21.830Z,60.40
2018-05-23T19:31:48.066Z,60.20
2018-05-23T19:34:14.363Z,60.50
2018-05-23T19:36:40.601Z,60.60
2018-05-23T19:39:06.865Z,61.30
2018-05-23T19:41:33.177Z,60.90
2018-05-23T19:43:59.429Z,61.80
2018-05-23T19:46:25.678Z,61.70
2018-05-23T19:48:51.969Z,62.20
2018-05-23T19:51:18.243Z,64.60
2018-05-23T19:53:44.721Z,63.90
2018-05-23T19:56:10.958Z,63.70
2018-05-23T19:58:37.222Z,64.00
2018-05-23T20:01:03.467Z,64.60
2018-05-23T20:03:29.726Z,64.80
2018-05-23T20:05:55.974Z,64.60
2018-05-23T20:08:22.311Z,65.30
2018-05-23T20:10:48.605Z,65.90
2018-05-23T20:13:15.594Z,65.80
2018-05-23T20:15:41.875Z,65.80
2018-05-23T20:18:08.893Z,66.40
2018-05-23T20:20:35.182Z,66.90
2018-05-23T20:23:01.456Z,66.30
2018-05-23T20:25:27.751Z,66.30
2018-05-23T20:27:54.032Z,68.10
2018-05-23T20:30:20.295Z,66.50
2018-05-23T20:32:46.551Z,66.50
2018-05-23T20:35:12.831Z,66.10
2018-05-23T20:37:39.075Z,66.10
2018-05-23T20:40:05.370Z,65.90
2018-05-23T20:42:31.749Z,65.40
2018-05-23T20:44:58.105Z,66.00
2018-05-23T20:47:25.091Z,65.80
2018-05-23T20:49:51.392Z,65.70
2018-05-23T20:52:18.431Z,65.80
2018-05-23T20:54:45.429Z,65.50
2018-05-23T20:57:11.670Z,65.40
2018-05-23T20:59:37.958Z,65.80
2018-05-23T21:02:04.247Z,67.40
2018-05-23T21:04:31.253Z,66.90
2018-05-23T21:06:57.508Z,66.90
2018-05-23T21:09:23.773Z,66.80
2018-05-23T21:11:50.023Z,67.30
2018-05-23T21:14:16.326Z,67.60
2018-05-23T21:16:43.638Z,69.80
2018-05-23T21:19:09.954Z,69.60
2018-05-23T21:21:36.618Z,69.70
2018-05-23T21:24:02.904Z,68.70
2018-05-23T21:26:29.746Z,69.70
2018-05-23T21:28:56.010Z,68.70
2018-05-23T21:31:22.546Z,68.40
2018-05-23T21:33:48.794Z,68.60
2018-05-23T21:36:15.046Z,67.90
2018-05-23T21:38:41.289Z,69.60
2018-05-23T21:41:08.290Z,70.70
2018-05-23T21:43:34.528Z,70.70
2018-05-23T21:46:00.794Z,70.50
2018-05-23T21:48:27.031Z,70.90
2018-05-23T21:50:53.293Z,71.10
2018-05-23T21:53:20.287Z,69.90
2018-05-23T21:55:46.544Z,69.80
2018-05-23T21:58:12.795Z,70.40
2018-05-23T22:00:39.045Z,71.80
2018-05-23T22:03:05.305Z,71.60
2018-05-23T22:05:31.554Z,71.50
2018-05-23T22:07:58.790Z,72.70
2018-05-23T22:10:25.058Z,72.30
2018-05-23T22:12:51.281Z,72.60
2018-05-23T22:15:17.547Z,71.90
2018-05-23T22:17:43.845Z,72.90
2018-05-23T22:20:10.099Z,73.40
2018-05-23T22:22:36.738Z,73.30
2018-05-23T22:25:03.041Z,73.50
2018-05-23T22:27:29.266Z,74.40
2018-05-23T22:29:55.578Z,74.60
2018-05-23T22:32:21.883Z,75.40
2018-05-23T22:34:48.137Z,75.80
2018-05-23T22:37:15.021Z,76.00
2018-05-23T22:39:41.968Z,76.60
2018-05-23T22:42:08.560Z,76.50
2018-05-23T22:44:34.951Z,76.80
2018-05-23T22:47:01.941Z,76.80
2018-05-23T22:49:28.477Z,76.80
2018-05-23T22:51:54.750Z,76.30
2018-05-23T22:54:21.608Z,77.10
2018-05-23T22:56:47.885Z,77.20
2018-05-23T22:59:14.121Z,77.30
2018-05-23T23:01:40.454Z,77.80
2018-05-23T23:04:06.752Z,78.10
2018-05-23T23:06:33.290Z,78.40
2018-05-23T23:09:00.402Z,77.30
2018-05-23T23:11:26.773Z,77.20
2018-05-23T23:13:53.734Z,75.20
2018-05-23T23:16:20.714Z,74.70
2018-05-23T23:18:46.954Z,74.70
2018-05-23T23:21:13.249Z,74.10
2018-05-23T23:23:39.477Z,74.30
2018-05-23T23:26:06.558Z,72.80
2018-05-23T23:28:32.819Z,72.80
2018-05-23T23:30:59.090Z,71.90
2018-05-23T23:33:25.491Z,71.20
2018-05-23T23:35:51.739Z,70.70
2018-05-23T23:38:17.973Z,72.50
2018-05-23T23:40:44.974Z,72.20
2018-05-23T23:43:11.207Z,72.20
2018-05-23T23:45:37.502Z,72.60
2018-05-23T23:48:03.740Z,72.60
2018-05-23T23:50:30.006Z,72.20
2018-05-23T23:52:56.229Z,73.80
2018-05-23T23:55:22.467Z,73.50
2018-05-23T23:57:48.718Z,73.70
